createdAt,value
2018-09-21T00:00:25.916Z,4.33
2018-09-21T00:02:54.222Z,5.17
2018-09-21T00:05:22.536Z,3.87
2018-09-21T00:07:50.928Z,3.93
2018-09-21T00:10:19.279Z,3.97
2018-09-21T00:12:47.638Z,4.47
2018-09-21T00:15:15.948Z,4.17
2018-09-21T00:17:44.411Z,5.00
2018-09-21T00:20:12.748Z,4.47
2018-09-21T00:22:41.092Z,4.17
2018-09-21T00:25:09.418Z,3.83
2018-09-21T00:27:38.122Z,5.07
2018-09-21T00:30:06.619Z,4.97
2018-09-21T00:32:35.053Z,4.27
2018-09-21T00:35:03.396Z,3.43
2018-09-21T00:37:31.726Z,4.43
2018-09-21T00:40:00.053Z,5.03
2018-09-21T00:42:28.556Z,5.67
2018-09-21T00:44:56.933Z,5.73
2018-09-21T00:47:25.261Z,5.37
2018-09-21T00:49:53.580Z,4.40
2018-09-21T00:52:21.900Z,5.47
2018-09-21T00:54:50.215Z,4.73
2018-09-21T00:57:18.531Z,4.53
2018-09-21T00:59:46.985Z,4.17
2018-09-21T01:02:15.316Z,3.80
2018-09-21T01:04:44.537Z,4.50
2018-09-21T01:07:14.589Z,3.97
2018-09-21T01:09:43.588Z,3.87
2018-09-21T01:12:11.893Z,3.93
2018-09-21T01:14:40.231Z,5.47
2018-09-21T01:17:08.559Z,4.33
2018-09-21T01:19:36.940Z,5.90
2018-09-21T01:22:05.371Z,4.63
2018-09-21T01:24:33.727Z,4.53
2018-09-21T01:27:07.947Z,5.80
2018-09-21T01:29:36.269Z,5.50
2018-09-21T01:32:04.646Z,4.97
2018-09-21T01:34:33.017Z,6.50
2018-09-21T01:37:01.451Z,4.77
2018-09-21T01:39:29.815Z,5.00
2018-09-21T01:41:58.114Z,4.03
2018-09-21T01:44:26.447Z,4.87
2018-09-21T01:46:54.857Z,5.83
2018-09-21T01:49:23.202Z,3.87
2018-09-21T01:51:51.533Z,3.77
2018-09-21T01:54:19.863Z,4.00
2018-09-21T01:56:48.195Z,5.27
2018-09-21T01:59:16.537Z,4.77
2018-09-21T02:01:44.935Z,5.13
2018-09-21T02:04:13.288Z,5.20
2018-09-21T02:06:41.661Z,4.10
2018-09-21T02:09:10.319Z,4.67
2018-09-21T02:11:38.673Z,3.77
2018-09-21T02:14:07.061Z,4.80
2018-09-21T02:16:35.450Z,4.07
2018-09-21T02:19:03.762Z,4.17
2018-09-21T02:21:32.276Z,5.70
2018-09-21T02:24:00.591Z,5.33
2018-09-21T02:26:28.941Z,6.33
2018-09-21T02:28:57.263Z,5.27
2018-09-21T02:31:25.621Z,6.37
2018-09-21T02:33:53.989Z,5.90
2018-09-21T02:36:22.887Z,5.47
2018-09-21T02:38:51.225Z,6.10
2018-09-21T02:41:19.626Z,6.70
2018-09-21T02:43:47.894Z,6.67
2018-09-21T02:46:16.243Z,6.40
2018-09-21T02:48:44.671Z,6.00
2018-09-21T02:51:12.939Z,4.90
2018-09-21T02:53:41.266Z,5.03
2018-09-21T02:56:09.719Z,4.50
2018-09-21T02:58:38.128Z,5.77
2018-09-21T03:01:06.737Z,4.47
2018-09-21T03:03:35.463Z,4.83
2018-09-21T03:06:03.825Z,5.57
2018-09-21T03:08:32.185Z,5.40
2018-09-21T03:11:00.511Z,4.37
2018-09-21T03:13:29.043Z,5.07
2018-09-21T03:15:57.817Z,5.83
2018-09-21T03:18:26.165Z,5.67
2018-09-21T03:20:54.797Z,5.20
2018-09-21T03:23:23.713Z,4.33
2018-09-21T03:25:52.535Z,7.30
2018-09-21T03:28:20.850Z,7.07
2018-09-21T03:30:49.178Z,5.40
2018-09-21T03:33:17.519Z,5.37
2018-09-21T03:35:45.864Z,4.90
2018-09-21T03:38:14.201Z,7.13
2018-09-21T03:40:42.604Z,7.50
2018-09-21T03:43:11.293Z,6.30
2018-09-21T03:45:40.149Z,6.70
2018-09-21T03:48:08.596Z,5.30
2018-09-21T03:50:36.933Z,6.60
2018-09-21T03:53:05.312Z,5.87
2018-09-21T03:55:33.635Z,6.67
2018-09-21T03:58:01.950Z,5.77
2018-09-21T04:00:30.271Z,6.87
2018-09-21T04:03:02.776Z,7.20
2018-09-21T04:05:31.186Z,5.03
2018-09-21T04:07:59.508Z,7.60
2018-09-21T04:10:27.862Z,6.80
2018-09-21T04:12:56.224Z,6.77
2018-09-21T04:15:24.542Z,7.57
2018-09-21T04:17:52.884Z,6.43
2018-09-21T04:20:21.276Z,5.70
2018-09-21T04:22:54.183Z,6.97
2018-09-21T04:25:22.460Z,5.60
2018-09-21T04:27:50.812Z,6.50
2018-09-21T04:30:19.159Z,6.53
2018-09-21T04:32:47.486Z,6.37
2018-09-21T04:35:15.820Z,5.13
2018-09-21T04:37:44.345Z,7.13
2018-09-21T04:40:12.746Z,6.27
2018-09-21T04:42:41.136Z,7.23
2018-09-21T04:45:09.483Z,6.10
2018-09-21T04:47:37.845Z,7.53
2018-09-21T04:50:06.227Z,6.20
2018-09-21T04:52:35.499Z,6.43
2018-09-21T04:55:03.839Z,5.93
2018-09-21T04:57:32.247Z,7.10
2018-09-21T05:00:00.591Z,6.97
2018-09-21T05:02:28.964Z,6.20
2018-09-21T05:04:57.316Z,5.67
2018-09-21T05:07:25.675Z,7.30
2018-09-21T05:09:54.701Z,5.83
2018-09-21T05:12:23.051Z,6.50
2018-09-21T05:14:51.479Z,6.87
2018-09-21T05:17:20.417Z,5.67
2018-09-21T05:19:49.307Z,5.10
2018-09-21T05:22:17.729Z,5.47
2018-09-21T05:24:46.124Z,7.43
2018-09-21T05:27:14.434Z,6.37
2018-09-21T05:29:42.803Z,7.67
2018-09-21T05:32:11.772Z,6.70
2018-09-21T05:34:40.348Z,7.77
2018-09-21T05:37:08.492Z,6.53
2018-09-21T05:39:36.989Z,7.33
2018-09-21T05:42:05.369Z,6.70
2018-09-21T05:44:33.725Z,6.73
2018-09-21T05:47:02.164Z,7.53
2018-09-21T05:49:30.592Z,6.53
2018-09-21T05:51:58.894Z,6.80
2018-09-21T05:54:27.251Z,5.03
2018-09-21T05:56:55.597Z,6.20
2018-09-21T05:59:23.919Z,6.43
2018-09-21T06:01:52.241Z,5.77
2018-09-21T06:04:20.636Z,5.73
2018-09-21T06:06:49.085Z,6.53
2018-09-21T06:09:17.415Z,5.90
2018-09-21T06:11:45.721Z,5.17
2018-09-21T06:14:14.171Z,5.87
2018-09-21T06:16:42.587Z,5.83
2018-09-21T06:19:11.001Z,5.93
2018-09-21T06:21:39.334Z,6.83
2018-09-21T06:24:07.679Z,6.53
2018-09-21T06:26:35.991Z,6.00
2018-09-21T06:29:04.323Z,5.90
2018-09-21T06:31:32.739Z,5.33
2018-09-21T06:34:01.351Z,6.00
2018-09-21T06:36:29.700Z,6.37
2018-09-21T06:38:58.189Z,6.50
2018-09-21T06:41:26.535Z,6.63
2018-09-21T06:43:54.963Z,6.40
2018-09-21T06:46:23.325Z,5.90
2018-09-21T06:48:51.705Z,6.10
2018-09-21T06:51:20.047Z,5.97
2018-09-21T06:53:48.403Z,5.80
2018-09-21T06:56:16.904Z,6.30
2018-09-21T06:58:45.243Z,6.20
2018-09-21T07:01:13.667Z,5.73
2018-09-21T07:03:41.982Z,5.67
2018-09-21T07:06:10.337Z,5.70
2018-09-21T07:08:38.675Z,5.47
2018-09-21T07:11:07.119Z,5.90
2018-09-21T07:13:35.475Z,5.10
2018-09-21T07:16:03.837Z,6.10
2018-09-21T07:18:32.195Z,5.80
2018-09-21T07:21:00.529Z,6.17
2018-09-21T07:23:28.911Z,6.00
2018-09-21T07:25:57.252Z,5.80
2018-09-21T07:28:25.603Z,5.03
2018-09-21T07:30:54.021Z,5.43
2018-09-21T07:33:22.373Z,5.57
2018-09-21T07:35:50.768Z,5.10
2018-09-21T07:38:19.137Z,5.90
2018-09-21T07:40:47.509Z,5.70
2018-09-21T07:43:15.843Z,5.50
2018-09-21T07:45:44.821Z,5.17
2018-09-21T07:48:13.188Z,5.73
2018-09-21T07:50:41.527Z,5.80
2018-09-21T07:53:09.893Z,5.17
2018-09-21T07:55:38.347Z,5.20
2018-09-21T07:58:06.906Z,5.23
2018-09-21T08:00:35.256Z,4.80
2018-09-21T08:03:03.600Z,4.77
2018-09-21T08:05:33.873Z,5.40
2018-09-21T08:08:03.771Z,5.47
2018-09-21T08:10:32.137Z,5.83
2018-09-21T08:13:00.985Z,4.73
2018-09-21T08:15:29.745Z,5.10
2018-09-21T08:17:58.212Z,4.90
2018-09-21T08:20:26.837Z,5.40
2018-09-21T08:22:55.246Z,4.97
2018-09-21T08:25:24.603Z,5.73
2018-09-21T08:27:52.927Z,5.23
2018-09-21T08:30:21.264Z,5.50
2018-09-21T08:32:50.266Z,5.67
2018-09-21T08:35:18.661Z,4.67
2018-09-21T08:37:47.001Z,5.00
2018-09-21T08:40:15.362Z,4.70
2018-09-21T08:42:43.692Z,4.80
2018-09-21T08:45:12.030Z,4.60
2018-09-21T08:47:40.380Z,5.33
2018-09-21T08:50:09.503Z,4.80
2018-09-21T08:52:38.167Z,4.20
2018-09-21T08:55:06.841Z,5.33
2018-09-21T08:57:35.211Z,4.43
2018-09-21T09:00:04.035Z,3.90
2018-09-21T09:02:32.398Z,4.80
2018-09-21T09:05:00.761Z,4.77
2018-09-21T09:07:29.188Z,4.60
2018-09-21T09:09:57.494Z,4.60
2018-09-21T09:12:25.884Z,4.43
2018-09-21T09:14:54.256Z,4.03
2018-09-21T09:17:22.729Z,4.50
2018-09-21T09:19:51.090Z,4.53
2018-09-21T09:22:19.407Z,3.63
2018-09-21T09:24:48.484Z,3.93
2018-09-21T09:27:16.824Z,3.90
2018-09-21T09:29:45.158Z,4.13
2018-09-21T09:32:13.490Z,3.93
2018-09-21T09:34:41.817Z,3.60
2018-09-21T09:37:10.179Z,4.00
2018-09-21T09:39:38.635Z,3.47
2018-09-21T09:42:07.004Z,3.90
2018-09-21T09:44:35.338Z,3.63
2018-09-21T09:47:03.675Z,3.33
2018-09-21T09:49:32.021Z,3.10
2018-09-21T09:52:00.357Z,3.40
2018-09-21T09:54:28.768Z,3.43
2018-09-21T09:56:57.110Z,3.33
2018-09-21T09:59:25.625Z,3.60
2018-09-21T10:01:53.951Z,3.43
2018-09-21T10:04:22.325Z,4.27
2018-09-21T10:06:50.742Z,2.83
2018-09-21T10:09:19.122Z,2.50
2018-09-21T10:11:47.466Z,2.30
2018-09-21T10:14:15.818Z,2.00
2018-09-21T10:16:44.757Z,2.57
2018-09-21T10:19:13.703Z,3.13
2018-09-21T10:21:42.026Z,2.70
2018-09-21T10:24:10.464Z,2.13
2018-09-21T10:26:38.768Z,1.60
2018-09-21T10:29:07.193Z,1.73
2018-09-21T10:31:35.524Z,1.87
2018-09-21T10:34:04.004Z,1.53
2018-09-21T10:36:32.460Z,2.13
2018-09-21T10:39:00.824Z,1.47
2018-09-21T10:41:29.230Z,1.70
2018-09-21T10:43:57.583Z,1.50
2018-09-21T10:46:25.948Z,1.90
2018-09-21T10:48:55.704Z,1.30
2018-09-21T10:51:24.093Z,1.93
2018-09-21T10:53:52.517Z,1.63
2018-09-21T10:56:20.846Z,1.70
2018-09-21T10:58:49.208Z,2.03
2018-09-21T11:01:18.443Z,1.50
2018-09-21T11:03:46.925Z,1.20
2018-09-21T11:06:15.272Z,1.70
2018-09-21T11:08:43.633Z,1.70
2018-09-21T11:11:11.974Z,1.97
2018-09-21T11:13:40.394Z,1.70
2018-09-21T11:16:08.769Z,1.80
2018-09-21T11:18:37.114Z,1.63
2018-09-21T11:21:05.588Z,1.60
2018-09-21T11:23:33.963Z,1.80
2018-09-21T11:26:02.391Z,2.07
2018-09-21T11:28:30.724Z,1.90
2018-09-21T11:30:59.698Z,1.33
2018-09-21T11:33:28.024Z,1.30
2018-09-21T11:35:57.061Z,1.40
2018-09-21T11:38:25.437Z,1.97
2018-09-21T11:40:53.763Z,2.13
2018-09-21T11:43:22.089Z,1.57
2018-09-21T11:45:50.909Z,2.03
2018-09-21T11:48:19.383Z,1.83
2018-09-21T11:50:47.749Z,1.83
2018-09-21T11:53:16.118Z,1.90
2018-09-21T11:55:45.060Z,1.60
2018-09-21T11:58:13.417Z,1.47
2018-09-21T12:00:41.792Z,1.87
2018-09-21T12:03:10.243Z,1.47
2018-09-21T12:05:38.619Z,2.03
2018-09-21T12:08:07.629Z,2.03
2018-09-21T12:10:36.673Z,1.60
2018-09-21T12:13:04.981Z,1.33
2018-09-21T12:15:33.331Z,1.70
2018-09-21T12:18:01.691Z,1.80
2018-09-21T12:20:30.044Z,1.93
2018-09-21T12:22:58.470Z,2.13
2018-09-21T12:25:26.825Z,2.33
2018-09-21T12:27:55.895Z,2.47
2018-09-21T12:30:24.318Z,2.00
2018-09-21T12:32:52.760Z,2.30
2018-09-21T12:35:21.143Z,3.00
2018-09-21T12:37:50.221Z,2.47
2018-09-21T12:40:18.582Z,2.17
2018-09-21T12:42:47.740Z,1.17
2018-09-21T12:45:16.076Z,0.80
2018-09-21T12:47:45.016Z,0.60
2018-09-21T12:50:13.421Z,0.80
2018-09-21T12:52:41.776Z,0.37
2018-09-21T12:55:10.791Z,0.63
2018-09-21T12:57:39.163Z,0.80
2018-09-21T13:00:09.068Z,0.67
2018-09-21T13:02:37.862Z,0.70
2018-09-21T13:05:06.224Z,0.47
2018-09-21T13:07:34.578Z,0.63
2018-09-21T13:10:03.108Z,0.57
2018-09-21T13:12:31.540Z,0.50
2018-09-21T13:15:00.068Z,0.73
2018-09-21T13:17:28.394Z,2.43
2018-09-21T13:19:56.720Z,2.00
2018-09-21T13:22:25.277Z,2.90
2018-09-21T13:24:53.636Z,1.33
2018-09-21T13:27:21.987Z,1.03
2018-09-21T13:29:50.297Z,1.43
2018-09-21T13:32:19.034Z,0.97
2018-09-21T13:34:47.503Z,0.70
2018-09-21T13:37:15.841Z,1.20
2018-09-21T13:39:44.202Z,1.40
2018-09-21T13:42:12.549Z,1.20
2018-09-21T13:44:40.969Z,1.17
2018-09-21T13:47:09.336Z,0.70
2018-09-21T13:49:37.745Z,1.87
2018-09-21T13:52:06.225Z,1.57
2018-09-21T13:54:34.668Z,1.90
2018-09-21T13:57:03.049Z,0.90
2018-09-21T13:59:31.349Z,1.93
2018-09-21T14:01:59.710Z,1.80
2018-09-21T14:04:28.099Z,1.10
2018-09-21T14:06:56.551Z,0.73
2018-09-21T14:09:24.956Z,0.83
2018-09-21T14:11:59.976Z,1.17
2018-09-21T14:14:28.448Z,0.80
2018-09-21T14:16:56.838Z,1.33
2018-09-21T14:19:25.271Z,1.33
2018-09-21T14:21:53.638Z,1.10
2018-09-21T14:24:22.045Z,1.60
2018-09-21T14:26:50.689Z,1.03
2018-09-21T14:29:19.035Z,1.03
2018-09-21T14:31:47.931Z,1.50
2018-09-21T14:34:16.487Z,1.77
2018-09-21T14:36:45.565Z,1.23
2018-09-21T14:39:13.950Z,1.60
2018-09-21T14:41:42.333Z,1.80
2018-09-21T14:44:10.707Z,1.77
2018-09-21T14:46:39.185Z,2.40
2018-09-21T14:49:07.532Z,1.47
2018-09-21T14:51:35.872Z,2.03
2018-09-21T14:54:04.251Z,1.93
2018-09-21T14:56:32.623Z,1.80
2018-09-21T14:59:01.003Z,2.40
2018-09-21T15:01:29.329Z,2.30
2018-09-21T15:03:57.693Z,1.77
2018-09-21T15:06:26.142Z,2.27
2018-09-21T15:08:54.499Z,1.70
2018-09-21T15:11:23.431Z,2.23
2018-09-21T15:13:52.101Z,2.57
2018-09-21T15:16:20.486Z,2.10
2018-09-21T15:18:49.488Z,2.37
2018-09-21T15:21:17.926Z,1.87
2018-09-21T15:23:46.315Z,2.30
2018-09-21T15:26:15.331Z,2.03
2018-09-21T15:28:43.717Z,2.67
2018-09-21T15:31:12.118Z,3.20
2018-09-21T15:33:40.543Z,2.10
2018-09-21T15:36:08.922Z,1.93
2018-09-21T15:38:37.296Z,2.63
2018-09-21T15:41:05.672Z,2.00
2018-09-21T15:43:34.120Z,2.93
2018-09-21T15:46:02.456Z,2.40
2018-09-21T15:48:30.794Z,2.20
2018-09-21T15:50:59.181Z,2.70
2018-09-21T15:53:28.031Z,2.93
2018-09-21T15:55:56.522Z,2.00
2018-09-21T15:58:24.918Z,2.10
2018-09-21T16:00:53.856Z,2.03
2018-09-21T16:03:22.295Z,2.60
2018-09-21T16:05:50.622Z,2.90
2018-09-21T16:08:18.978Z,2.10
2018-09-21T16:10:47.361Z,2.40
2018-09-21T16:13:15.851Z,1.97
2018-09-21T16:15:44.196Z,2.30
2018-09-21T16:18:12.517Z,1.77
2018-09-21T16:20:41.164Z,1.70
2018-09-21T16:23:10.942Z,2.20
2018-09-21T16:25:39.440Z,2.30
2018-09-21T16:28:08.176Z,2.30
2018-09-21T16:30:36.628Z,2.10
2018-09-21T16:33:05.114Z,2.30
2018-09-21T16:35:37.202Z,2.50
2018-09-21T16:38:05.583Z,2.20
2018-09-21T16:40:34.542Z,1.50
2018-09-21T16:43:02.879Z,1.90
2018-09-21T16:45:31.792Z,2.10
2018-09-21T16:48:00.412Z,1.90
2018-09-21T16:50:28.762Z,2.20
2018-09-21T16:52:57.120Z,2.07
2018-09-21T16:55:26.139Z,1.70
2018-09-21T16:57:54.518Z,1.80
2018-09-21T17:00:23.004Z,1.80
2018-09-21T17:02:51.379Z,1.63
2018-09-21T17:05:19.759Z,1.77
2018-09-21T17:07:48.114Z,1.07
2018-09-21T17:10:16.506Z,1.27
2018-09-21T17:12:45.312Z,1.47
2018-09-21T17:15:13.645Z,1.10
2018-09-21T17:17:41.990Z,1.00
2018-09-21T17:20:10.438Z,1.20
2018-09-21T17:22:39.045Z,0.63
2018-09-21T17:25:09.052Z,1.40
2018-09-21T17:27:37.562Z,0.60
2018-09-21T17:30:06.034Z,0.60
2018-09-21T17:32:34.383Z,0.40
2018-09-21T17:35:02.834Z,1.37
2018-09-21T17:37:31.256Z,1.03
2018-09-21T17:39:59.574Z,0.77
2018-09-21T17:42:27.895Z,0.67
2018-09-21T17:44:56.291Z,0.57
2018-09-21T17:47:24.757Z,0.63
2018-09-21T17:49:53.119Z,0.70
2018-09-21T17:52:21.498Z,0.67
2018-09-21T17:54:50.607Z,0.83
2018-09-21T17:57:19.000Z,0.93
2018-09-21T17:59:48.084Z,1.23
2018-09-21T18:02:16.457Z,1.57
2018-09-21T18:04:45.411Z,0.40
2018-09-21T18:07:18.763Z,0.50
2018-09-21T18:09:47.971Z,1.10
2018-09-21T18:12:16.392Z,0.53
2018-09-21T18:14:44.794Z,0.80
2018-09-21T18:17:13.167Z,0.67
2018-09-21T18:19:41.819Z,0.80
2018-09-21T18:22:10.681Z,0.80
2018-09-21T18:24:39.263Z,0.93
2018-09-21T18:27:07.856Z,0.77
2018-09-21T18:29:36.273Z,0.80
2018-09-21T18:32:04.788Z,0.50
2018-09-21T18:34:33.133Z,0.97
2018-09-21T18:37:02.335Z,0.70
2018-09-21T18:39:31.101Z,1.03
2018-09-21T18:41:59.477Z,0.47
2018-09-21T18:44:27.940Z,0.87
2018-09-21T18:46:56.297Z,0.60
2018-09-21T18:49:25.359Z,0.70
2018-09-21T18:51:53.754Z,0.70
2018-09-21T18:54:22.184Z,0.50
2018-09-21T18:56:50.592Z,0.40
2018-09-21T18:59:19.551Z,0.97
2018-09-21T19:01:47.927Z,1.00
2018-09-21T19:04:16.319Z,0.83
2018-09-21T19:06:44.769Z,0.60
2018-09-21T19:09:13.370Z,0.60
2018-09-21T19:11:42.410Z,0.90
2018-09-21T19:14:10.912Z,0.80
2018-09-21T19:16:39.305Z,1.10
2018-09-21T19:19:07.700Z,0.87
2018-09-21T19:21:36.382Z,1.00
2018-09-21T19:24:07.733Z,1.27
2018-09-21T19:26:36.375Z,0.60
2018-09-21T19:29:04.628Z,0.87
2018-09-21T19:31:33.089Z,0.67
2018-09-21T19:34:01.618Z,0.50
2018-09-21T19:36:29.991Z,0.70
2018-09-21T19:38:58.391Z,0.40
2018-09-21T19:41:26.725Z,0.77
2018-09-21T19:43:55.125Z,0.70
2018-09-21T19:46:23.971Z,0.77
2018-09-21T19:48:52.367Z,0.70
2018-09-21T19:51:20.764Z,0.67
2018-09-21T19:53:49.163Z,0.90
2018-09-21T19:56:17.516Z,1.27
2018-09-21T19:58:45.893Z,1.13
2018-09-21T20:01:14.341Z,0.83
2018-09-21T20:03:42.815Z,0.60
2018-09-21T20:06:11.212Z,0.67
2018-09-21T20:08:39.657Z,0.73
2018-09-21T20:11:08.083Z,0.73
2018-09-21T20:13:36.465Z,0.90
2018-09-21T20:16:04.882Z,0.87
2018-09-21T20:18:34.104Z,0.73
2018-09-21T20:21:02.460Z,0.70
2018-09-21T20:23:30.872Z,0.90
2018-09-21T20:25:59.234Z,1.17
2018-09-21T20:28:27.632Z,0.70
2018-09-21T20:31:01.423Z,0.50
2018-09-21T20:33:31.344Z,0.70
2018-09-21T20:36:00.062Z,1.07
2018-09-21T20:38:29.221Z,0.70
2018-09-21T20:40:58.131Z,0.70
2018-09-21T20:43:26.535Z,0.70
2018-09-21T20:45:55.818Z,0.60
2018-09-21T20:48:24.705Z,0.80
2018-09-21T20:50:53.271Z,0.60
2018-09-21T20:53:22.471Z,0.97
2018-09-21T20:55:51.444Z,1.13
2018-09-21T20:58:19.840Z,0.90
2018-09-21T21:00:48.216Z,0.50
2018-09-21T21:03:16.592Z,0.67
2018-09-21T21:05:45.004Z,1.10
2018-09-21T21:08:13.598Z,0.80
2018-09-21T21:10:42.044Z,0.70
2018-09-21T21:13:10.369Z,0.97
2018-09-21T21:15:38.735Z,0.50
2018-09-21T21:18:07.298Z,0.93
2018-09-21T21:20:35.691Z,1.20
2018-09-21T21:23:04.156Z,1.10
2018-09-21T21:25:32.504Z,0.80
2018-09-21T21:28:00.832Z,0.80
2018-09-21T21:30:29.147Z,0.80
2018-09-21T21:32:57.556Z,0.90
2018-09-21T21:35:32.385Z,0.73
2018-09-21T21:38:00.752Z,0.50
2018-09-21T21:40:29.128Z,0.67
2018-09-21T21:42:57.518Z,1.37
2018-09-21T21:45:25.913Z,1.00
2018-09-21T21:47:54.305Z,0.80
2018-09-21T21:50:22.707Z,0.77
2018-09-21T21:52:51.065Z,0.83
2018-09-21T21:55:19.385Z,0.90
2018-09-21T21:57:47.835Z,1.03
2018-09-21T22:00:16.179Z,0.50
2018-09-21T22:02:45.001Z,0.93
2018-09-21T22:05:13.324Z,0.90
2018-09-21T22:07:41.702Z,0.80
2018-09-21T22:10:10.681Z,0.70
2018-09-21T22:12:44.379Z,0.60
2018-09-21T22:15:15.967Z,0.60
2018-09-21T22:17:44.302Z,0.50
2018-09-21T22:20:12.683Z,0.87
2018-09-21T22:22:41.155Z,1.00
2018-09-21T22:25:10.725Z,0.80
2018-09-21T22:27:39.110Z,1.40
2018-09-21T22:30:07.850Z,0.80
2018-09-21T22:32:36.663Z,0.70
2018-09-21T22:35:05.047Z,0.70
2018-09-21T22:37:33.412Z,0.50
2018-09-21T22:40:01.851Z,0.87
2018-09-21T22:42:30.480Z,0.87
2018-09-21T22:44:58.853Z,0.67
2018-09-21T22:47:27.165Z,0.60
2018-09-21T22:49:55.624Z,0.63
2018-09-21T22:52:24.612Z,0.80
2018-09-21T22:54:52.923Z,0.90
2018-09-21T22:57:21.263Z,0.70
2018-09-21T22:59:49.624Z,0.70
2018-09-21T23:02:17.966Z,1.60
2018-09-21T23:04:46.339Z,1.27
2018-09-21T23:07:14.810Z,0.97
2018-09-21T23:09:43.173Z,0.90
2018-09-21T23:12:11.513Z,1.30
2018-09-21T23:14:39.859Z,0.70
2018-09-21T23:17:08.191Z,0.93
2018-09-21T23:19:36.531Z,0.67
2018-09-21T23:22:04.933Z,1.00
2018-09-21T23:24:33.501Z,0.80
2018-09-21T23:27:01.830Z,1.10
2018-09-21T23:29:30.151Z,1.17
2018-09-21T23:31:58.471Z,0.87
2018-09-21T23:34:26.819Z,0.77
2018-09-21T23:36:55.288Z,0.73
2018-09-21T23:39:23.615Z,1.00
2018-09-21T23:41:51.955Z,1.37
2018-09-21T23:44:20.310Z,0.60
2018-09-21T23:46:48.643Z,0.97
2018-09-21T23:49:16.978Z,0.77
2018-09-21T23:51:45.430Z,0.70
2018-09-21T23:54:13.730Z,1.20
2018-09-21T23:56:42.150Z,0.77
2018-09-21T23:59:10.534Z,1.50
